Terminal Aerodrome Forecast
Issued by NWS Louisville, KY

Home | Current Version | Previous Version | Text Only | Print | Product List | Glossary On
Versions: 1 2 3 4 5 6 7 8 9 10 11 12 13 14 15 16 17 18 19
376
FTUS43 KLMK 231120
TAFBWG
TAF
KBWG 231120Z 2312/2412 07005KT P6SM SCT250
     FM231500 15008KT P6SM SCT120 BKN250
     FM231900 18010KT P6SM BKN035
     FM240300 19012KT P6SM SCT025 BKN100=

USA.gov is the U.S. government's official web portal to all federal, state and local government web resources and services.